EAG2241 SBVT-SBGR
Flight info
| Callsign | EAG2241 |
|---|---|
| Flight time | 1h 8m |
| Altitude | 30000 |
| Route | USVAG DCT SIDUR DCT EDMUS |
| Aircraft | A320/M-SDE3FGHIRWY/LB1 |
Departure
| Time | 2026-05-06 16:02 |
|---|---|
| Airport | Eurico de Aguiar Salles International Airport (SBVT) |
Arrival
| Time | 2026-05-06 17:11 |
|---|---|
| Airport | São Paulo/Guarulhos–Governor André Franco Montoro International Airport (SBGR) |
| Time | Latitude | Longitude | Altitude | Speed | Heading |
|---|---|---|---|---|---|
| 2026-05-06 15:38 | -20.26460 | -40.28181 | 18 ft | 0 kts | 262° |
| 2026-05-06 15:52 | -20.26459 | -40.28180 | 18 ft | 2 kts | 262° |
| 2026-05-06 15:53 | -20.26457 | -40.28152 | 18 ft | 4 kts | 272° |
| 2026-05-06 15:53 | -20.26461 | -40.28124 | 19 ft | 4 kts | 294° |
| 2026-05-06 15:53 | -20.26476 | -40.28105 | 18 ft | 3 kts | 347° |
| 2026-05-06 15:53 | -20.26480 | -40.28104 | 18 ft | 1 kts | 352° |
| 2026-05-06 15:55 | -20.26468 | -40.28104 | 18 ft | 4 kts | 0° |
| 2026-05-06 15:56 | -20.26445 | -40.28088 | 18 ft | 4 kts | 48° |
| 2026-05-06 15:56 | -20.26432 | -40.28071 | 20 ft | 2 kts | 51° |
| 2026-05-06 15:56 | -20.26420 | -40.28060 | 18 ft | 3 kts | 24° |
| 2026-05-06 15:56 | -20.26385 | -40.28058 | 18 ft | 7 kts | 353° |
| 2026-05-06 15:57 | -20.26320 | -40.28064 | 18 ft | 12 kts | 355° |
| 2026-05-06 15:57 | -20.26235 | -40.28078 | 18 ft | 12 kts | 352° |
| 2026-05-06 15:57 | -20.26160 | -40.28088 | 18 ft | 10 kts | 352° |
| 2026-05-06 15:57 | -20.26097 | -40.28097 | 18 ft | 8 kts | 352° |
| 2026-05-06 15:58 | -20.26045 | -40.28105 | 18 ft | 7 kts | 351° |
| 2026-05-06 15:58 | -20.25995 | -40.28113 | 20 ft | 8 kts | 352° |
| 2026-05-06 15:58 | -20.25941 | -40.28121 | 18 ft | 8 kts | 352° |
| 2026-05-06 15:58 | -20.25881 | -40.28130 | 20 ft | 9 kts | 351° |
| 2026-05-06 15:59 | -20.25814 | -40.28139 | 18 ft | 10 kts | 353° |
| 2026-05-06 15:59 | -20.25737 | -40.28151 | 18 ft | 12 kts | 352° |
| 2026-05-06 15:59 | -20.25645 | -40.28163 | 20 ft | 15 kts | 353° |
| 2026-05-06 15:59 | -20.25535 | -40.28180 | 19 ft | 17 kts | 351° |
| 2026-05-06 16:00 | -20.25407 | -40.28199 | 18 ft | 19 kts | 352° |
| 2026-05-06 16:00 | -20.25271 | -40.28220 | 18 ft | 21 kts | 351° |
| 2026-05-06 16:00 | -20.25162 | -40.28234 | 18 ft | 8 kts | 354° |
| 2026-05-06 16:00 | -20.25112 | -40.28231 | 21 ft | 7 kts | 18° |
| 2026-05-06 16:01 | -20.25045 | -40.28188 | 18 ft | 15 kts | 30° |
| 2026-05-06 16:01 | -20.24981 | -40.28138 | 20 ft | 10 kts | 59° |
| 2026-05-06 16:01 | -20.24999 | -40.28084 | 18 ft | 7 kts | 153° |
| 2026-05-06 16:01 | -20.25013 | -40.28081 | 18 ft | 0 kts | 171° |
| 2026-05-06 16:02 | -20.25115 | -40.28062 | 18 ft | 48 kts | 171° |
| 2026-05-06 16:02 | -20.25696 | -40.27981 | 22 ft | 117 kts | 172° |
| 2026-05-06 16:02 | -20.26656 | -40.27836 | 258 ft | 147 kts | 172° |
| 2026-05-06 16:02 | -20.27655 | -40.27703 | 954 ft | 144 kts | 173° |
| 2026-05-06 16:03 | -20.28646 | -40.27584 | 1573 ft | 144 kts | 172° |
| 2026-05-06 16:03 | -20.29663 | -40.27442 | 1987 ft | 156 kts | 172° |
| 2026-05-06 16:03 | -20.30792 | -40.27273 | 2284 ft | 174 kts | 171° |
| 2026-05-06 16:03 | -20.32064 | -40.27075 | 2494 ft | 196 kts | 171° |
| 2026-05-06 16:04 | -20.33494 | -40.26853 | 2728 ft | 219 kts | 171° |
| 2026-05-06 16:04 | -20.35091 | -40.26611 | 3044 ft | 244 kts | 173° |
| 2026-05-06 16:04 | -20.36826 | -40.26845 | 3483 ft | 264 kts | 206° |
| 2026-05-06 16:04 | -20.38164 | -40.28159 | 4210 ft | 272 kts | 241° |
| 2026-05-06 16:05 | -20.38676 | -40.30129 | 5028 ft | 276 kts | 266° |
| 2026-05-06 16:05 | -20.38691 | -40.32161 | 5831 ft | 280 kts | 272° |
| 2026-05-06 16:05 | -20.38599 | -40.34253 | 6642 ft | 285 kts | 272° |
| 2026-05-06 16:05 | -20.38556 | -40.36376 | 7440 ft | 289 kts | 270° |
| 2026-05-06 16:06 | -20.38605 | -40.38528 | 8203 ft | 292 kts | 267° |
| 2026-05-06 16:06 | -20.38740 | -40.40705 | 8962 ft | 297 kts | 265° |
| 2026-05-06 16:06 | -20.38938 | -40.42908 | 9684 ft | 301 kts | 264° |
| 2026-05-06 16:06 | -20.39174 | -40.45144 | 10074 ft | 304 kts | 263° |
| 2026-05-06 16:07 | -20.39430 | -40.47409 | 10175 ft | 319 kts | 263° |
| 2026-05-06 16:07 | -20.39698 | -40.49740 | 10166 ft | 310 kts | 263° |
| 2026-05-06 16:07 | -20.39963 | -40.52061 | 10161 ft | 317 kts | 263° |
| 2026-05-06 16:07 | -20.40224 | -40.54376 | 10174 ft | 320 kts | 263° |
| 2026-05-06 16:08 | -20.40574 | -40.56701 | 10182 ft | 324 kts | 256° |
| 2026-05-06 16:08 | -20.41348 | -40.59075 | 10169 ft | 354 kts | 245° |
| 2026-05-06 16:08 | -20.42653 | -40.61395 | 10237 ft | 375 kts | 232° |
| 2026-05-06 16:08 | -20.44459 | -40.63430 | 10795 ft | 381 kts | 220° |
| 2026-05-06 16:09 | -20.46601 | -40.65109 | 11451 ft | 384 kts | 214° |
| 2026-05-06 16:09 | -20.48806 | -40.66744 | 12101 ft | 387 kts | 214° |
| 2026-05-06 16:09 | -20.51025 | -40.68391 | 12749 ft | 390 kts | 214° |
| 2026-05-06 16:09 | -20.53258 | -40.70047 | 13367 ft | 393 kts | 214° |
| 2026-05-06 16:10 | -20.55512 | -40.71716 | 13962 ft | 396 kts | 214° |
| 2026-05-06 16:10 | -20.57782 | -40.73397 | 14545 ft | 399 kts | 214° |
| 2026-05-06 16:10 | -20.60071 | -40.75092 | 15102 ft | 402 kts | 214° |
| 2026-05-06 16:10 | -20.62375 | -40.76796 | 15649 ft | 404 kts | 214° |
| 2026-05-06 16:11 | -20.64695 | -40.78513 | 16170 ft | 407 kts | 214° |
| 2026-05-06 16:11 | -20.67030 | -40.80242 | 16683 ft | 410 kts | 215° |
| 2026-05-06 16:11 | -20.69218 | -40.82200 | 17173 ft | 413 kts | 225° |
| 2026-05-06 16:11 | -20.71038 | -40.84532 | 17651 ft | 416 kts | 235° |
| 2026-05-06 16:12 | -20.72644 | -40.87108 | 18124 ft | 418 kts | 236° |
| 2026-05-06 16:12 | -20.74258 | -40.89708 | 18593 ft | 421 kts | 236° |
| 2026-05-06 16:12 | -20.75882 | -40.92317 | 19039 ft | 423 kts | 236° |
| 2026-05-06 16:12 | -20.77519 | -40.94943 | 19491 ft | 426 kts | 236° |
| 2026-05-06 16:13 | -20.79164 | -40.97584 | 19924 ft | 428 kts | 236° |
| 2026-05-06 16:13 | -20.80821 | -41.00241 | 20351 ft | 431 kts | 236° |
| 2026-05-06 16:13 | -20.82487 | -41.02915 | 20769 ft | 433 kts | 236° |
| 2026-05-06 16:13 | -20.84162 | -41.05604 | 21162 ft | 436 kts | 236° |
| 2026-05-06 16:14 | -20.85844 | -41.08309 | 21575 ft | 438 kts | 236° |
| 2026-05-06 16:14 | -20.87534 | -41.11028 | 21958 ft | 440 kts | 236° |
| 2026-05-06 16:14 | -20.89231 | -41.13759 | 22335 ft | 442 kts | 236° |
| 2026-05-06 16:14 | -20.90938 | -41.16507 | 22701 ft | 445 kts | 236° |
| 2026-05-06 16:15 | -20.92655 | -41.19269 | 23053 ft | 447 kts | 236° |
| 2026-05-06 16:15 | -20.94380 | -41.22042 | 23401 ft | 449 kts | 236° |
| 2026-05-06 16:15 | -20.96110 | -41.24826 | 23735 ft | 451 kts | 236° |
| 2026-05-06 16:15 | -20.97850 | -41.27626 | 24082 ft | 453 kts | 236° |
| 2026-05-06 16:16 | -20.99575 | -41.30406 | 24398 ft | 455 kts | 236° |
| 2026-05-06 16:16 | -21.01327 | -41.33235 | 24727 ft | 457 kts | 236° |
| 2026-05-06 16:16 | -21.03083 | -41.36075 | 25047 ft | 458 kts | 236° |
| 2026-05-06 16:16 | -21.04847 | -41.38927 | 25348 ft | 460 kts | 236° |
| 2026-05-06 16:17 | -21.06614 | -41.41787 | 25652 ft | 461 kts | 236° |
| 2026-05-06 16:17 | -21.08387 | -41.44657 | 25951 ft | 463 kts | 236° |
| 2026-05-06 16:17 | -21.10165 | -41.47533 | 26255 ft | 464 kts | 236° |
| 2026-05-06 16:17 | -21.11950 | -41.50426 | 26551 ft | 466 kts | 236° |
| 2026-05-06 16:18 | -21.13740 | -41.53325 | 26836 ft | 468 kts | 236° |
| 2026-05-06 16:18 | -21.15540 | -41.56239 | 27123 ft | 469 kts | 236° |
| 2026-05-06 16:18 | -21.17333 | -41.59148 | 27503 ft | 468 kts | 236° |
| 2026-05-06 16:18 | -21.19123 | -41.62053 | 27919 ft | 466 kts | 236° |
| 2026-05-06 16:19 | -21.20901 | -41.64944 | 28311 ft | 464 kts | 236° |
| 2026-05-06 16:19 | -21.22653 | -41.67789 | 28694 ft | 463 kts | 236° |
| 2026-05-06 16:19 | -21.24423 | -41.70660 | 29080 ft | 461 kts | 236° |
| 2026-05-06 16:19 | -21.26188 | -41.73521 | 29468 ft | 460 kts | 236° |
| 2026-05-06 16:20 | -21.27950 | -41.76377 | 29846 ft | 458 kts | 236° |
| 2026-05-06 16:20 | -21.29705 | -41.79227 | 30096 ft | 458 kts | 236° |
| 2026-05-06 16:20 | -21.33215 | -41.84950 | 30177 ft | 460 kts | 236° |
| 2026-05-06 16:21 | -21.36727 | -41.90687 | 30183 ft | 460 kts | 236° |
| 2026-05-06 16:21 | -21.40238 | -41.96421 | 30183 ft | 460 kts | 236° |
| 2026-05-06 16:22 | -21.43751 | -42.02155 | 30183 ft | 459 kts | 236° |
| 2026-05-06 16:22 | -21.47263 | -42.07891 | 30183 ft | 460 kts | 236° |
| 2026-05-06 16:23 | -21.50766 | -42.13628 | 30183 ft | 459 kts | 236° |
| 2026-05-06 16:23 | -21.54262 | -42.19365 | 30183 ft | 459 kts | 236° |
| 2026-05-06 16:24 | -21.57760 | -42.25101 | 30182 ft | 459 kts | 236° |
| 2026-05-06 16:24 | -21.61254 | -42.30837 | 30185 ft | 459 kts | 236° |
| 2026-05-06 16:25 | -21.64726 | -42.36539 | 30186 ft | 459 kts | 236° |
| 2026-05-06 16:25 | -21.68219 | -42.42285 | 30189 ft | 459 kts | 236° |
| 2026-05-06 16:26 | -21.71702 | -42.48032 | 30188 ft | 459 kts | 236° |
| 2026-05-06 16:26 | -21.75188 | -42.53778 | 30190 ft | 458 kts | 236° |
| 2026-05-06 16:27 | -21.78674 | -42.59530 | 30191 ft | 458 kts | 236° |
| 2026-05-06 16:27 | -21.82154 | -42.65279 | 30191 ft | 459 kts | 236° |
| 2026-05-06 16:28 | -21.85633 | -42.71033 | 30193 ft | 459 kts | 236° |
| 2026-05-06 16:28 | -21.89101 | -42.76799 | 30194 ft | 459 kts | 236° |
| 2026-05-06 16:29 | -21.92572 | -42.82560 | 30194 ft | 458 kts | 236° |
| 2026-05-06 16:29 | -21.96047 | -42.88314 | 30196 ft | 458 kts | 236° |
| 2026-05-06 16:30 | -21.98932 | -42.93095 | 30198 ft | 458 kts | 236° |
| 2026-05-06 16:30 | -22.02963 | -42.99785 | 30199 ft | 458 kts | 236° |
| 2026-05-06 16:31 | -22.06420 | -43.05546 | 30200 ft | 457 kts | 236° |
| 2026-05-06 16:31 | -22.09874 | -43.11308 | 30203 ft | 458 kts | 236° |
| 2026-05-06 16:32 | -22.13332 | -43.17075 | 30202 ft | 458 kts | 236° |
| 2026-05-06 16:32 | -22.16784 | -43.22844 | 30197 ft | 458 kts | 236° |
| 2026-05-06 16:33 | -22.20234 | -43.28613 | 30190 ft | 457 kts | 236° |
| 2026-05-06 16:34 | -22.25404 | -43.37271 | 30185 ft | 457 kts | 236° |
| 2026-05-06 16:34 | -22.28844 | -43.43044 | 30180 ft | 458 kts | 236° |
| 2026-05-06 16:35 | -22.32286 | -43.48829 | 30178 ft | 457 kts | 236° |
| 2026-05-06 16:35 | -22.35728 | -43.54608 | 30175 ft | 457 kts | 236° |
| 2026-05-06 16:36 | -22.39163 | -43.60382 | 30189 ft | 457 kts | 236° |
| 2026-05-06 16:36 | -22.42576 | -43.66125 | 30179 ft | 457 kts | 236° |
| 2026-05-06 16:37 | -22.46005 | -43.71904 | 30170 ft | 457 kts | 236° |
| 2026-05-06 16:37 | -22.49432 | -43.77685 | 30167 ft | 456 kts | 236° |
| 2026-05-06 16:38 | -22.52856 | -43.83470 | 30166 ft | 457 kts | 236° |
| 2026-05-06 16:38 | -22.56275 | -43.89259 | 30163 ft | 457 kts | 236° |
| 2026-05-06 16:39 | -22.59694 | -43.95053 | 30163 ft | 457 kts | 236° |
| 2026-05-06 16:39 | -22.63114 | -44.00845 | 30163 ft | 456 kts | 236° |
| 2026-05-06 16:40 | -22.66532 | -44.06634 | 30162 ft | 456 kts | 236° |
| 2026-05-06 16:40 | -22.69943 | -44.12426 | 30162 ft | 456 kts | 236° |
| 2026-05-06 16:41 | -22.72772 | -44.17239 | 30160 ft | 455 kts | 236° |
| 2026-05-06 16:41 | -22.76363 | -44.24192 | 30162 ft | 457 kts | 246° |
| 2026-05-06 16:42 | -22.78754 | -44.30574 | 30163 ft | 457 kts | 246° |
| 2026-05-06 16:42 | -22.81143 | -44.36950 | 30164 ft | 456 kts | 246° |
| 2026-05-06 16:43 | -22.83156 | -44.42295 | 30197 ft | 457 kts | 246° |
| 2026-05-06 16:43 | -22.85539 | -44.48637 | 30188 ft | 457 kts | 246° |
| 2026-05-06 16:44 | -22.87937 | -44.55028 | 30183 ft | 457 kts | 246° |
| 2026-05-06 16:44 | -22.90329 | -44.61412 | 30184 ft | 457 kts | 246° |
| 2026-05-06 16:45 | -22.93117 | -44.68884 | 29951 ft | 457 kts | 246° |
| 2026-05-06 16:45 | -22.93907 | -44.71003 | 29785 ft | 458 kts | 246° |
| 2026-05-06 16:45 | -22.95101 | -44.74207 | 29534 ft | 458 kts | 246° |
| 2026-05-06 16:45 | -22.96297 | -44.77414 | 29284 ft | 459 kts | 246° |
| 2026-05-06 16:46 | -22.97490 | -44.80626 | 29030 ft | 460 kts | 246° |
| 2026-05-06 16:46 | -22.98687 | -44.83849 | 28776 ft | 461 kts | 246° |
| 2026-05-06 16:46 | -22.99890 | -44.87086 | 28534 ft | 462 kts | 246° |
| 2026-05-06 16:46 | -23.01094 | -44.90322 | 28293 ft | 463 kts | 246° |
| 2026-05-06 16:47 | -23.02301 | -44.93568 | 28031 ft | 464 kts | 247° |
| 2026-05-06 16:47 | -23.03507 | -44.96813 | 27779 ft | 465 kts | 247° |
| 2026-05-06 16:47 | -23.04716 | -45.00069 | 27538 ft | 465 kts | 247° |
| 2026-05-06 16:47 | -23.05926 | -45.03331 | 27281 ft | 466 kts | 247° |
| 2026-05-06 16:48 | -23.07124 | -45.06559 | 27035 ft | 467 kts | 247° |
| 2026-05-06 16:48 | -23.08338 | -45.09837 | 26784 ft | 468 kts | 247° |
| 2026-05-06 16:48 | -23.09551 | -45.13123 | 26541 ft | 469 kts | 247° |
| 2026-05-06 16:48 | -23.10764 | -45.16417 | 26286 ft | 470 kts | 247° |
| 2026-05-06 16:49 | -23.11976 | -45.19718 | 26036 ft | 471 kts | 247° |
| 2026-05-06 16:49 | -23.13192 | -45.23023 | 25789 ft | 472 kts | 247° |
| 2026-05-06 16:49 | -23.14414 | -45.26338 | 25536 ft | 473 kts | 247° |
| 2026-05-06 16:49 | -23.15641 | -45.29657 | 25292 ft | 474 kts | 247° |
| 2026-05-06 16:50 | -23.16870 | -45.32990 | 25037 ft | 475 kts | 247° |
| 2026-05-06 16:50 | -23.18099 | -45.36325 | 24788 ft | 476 kts | 248° |
| 2026-05-06 16:50 | -23.19177 | -45.39729 | 24534 ft | 477 kts | 255° |
| 2026-05-06 16:50 | -23.19958 | -45.43236 | 24289 ft | 479 kts | 256° |
| 2026-05-06 16:51 | -23.20735 | -45.46765 | 24056 ft | 480 kts | 256° |
| 2026-05-06 16:51 | -23.21511 | -45.50289 | 23754 ft | 480 kts | 256° |
| 2026-05-06 16:51 | -23.22286 | -45.53807 | 22998 ft | 475 kts | 256° |
| 2026-05-06 16:51 | -23.23071 | -45.57270 | 22280 ft | 469 kts | 255° |
| 2026-05-06 16:52 | -23.23938 | -45.60672 | 21562 ft | 465 kts | 253° |
| 2026-05-06 16:52 | -23.24872 | -45.64018 | 20854 ft | 460 kts | 252° |
| 2026-05-06 16:52 | -23.25835 | -45.67319 | 20154 ft | 456 kts | 251° |
| 2026-05-06 16:52 | -23.26793 | -45.70590 | 19455 ft | 452 kts | 251° |
| 2026-05-06 16:53 | -23.27730 | -45.73837 | 18768 ft | 448 kts | 252° |
| 2026-05-06 16:53 | -23.28627 | -45.77017 | 18100 ft | 444 kts | 252° |
| 2026-05-06 16:53 | -23.29513 | -45.80219 | 17423 ft | 440 kts | 252° |
| 2026-05-06 16:53 | -23.30379 | -45.83398 | 16747 ft | 437 kts | 252° |
| 2026-05-06 16:54 | -23.31234 | -45.86552 | 16075 ft | 433 kts | 252° |
| 2026-05-06 16:54 | -23.32085 | -45.89686 | 15417 ft | 430 kts | 253° |
| 2026-05-06 16:54 | -23.32934 | -45.92781 | 14945 ft | 425 kts | 252° |
| 2026-05-06 16:54 | -23.33799 | -45.95862 | 14842 ft | 426 kts | 252° |
| 2026-05-06 16:55 | -23.34676 | -45.98947 | 14647 ft | 426 kts | 252° |
| 2026-05-06 16:55 | -23.35555 | -46.02023 | 14431 ft | 425 kts | 252° |
| 2026-05-06 16:55 | -23.36431 | -46.05091 | 14222 ft | 424 kts | 252° |
| 2026-05-06 16:55 | -23.37304 | -46.08154 | 14021 ft | 423 kts | 252° |
| 2026-05-06 16:56 | -23.38170 | -46.11212 | 13807 ft | 422 kts | 252° |
| 2026-05-06 16:56 | -23.39030 | -46.14263 | 13597 ft | 421 kts | 252° |
| 2026-05-06 16:56 | -23.39875 | -46.17266 | 13386 ft | 420 kts | 252° |
| 2026-05-06 16:56 | -23.40727 | -46.20299 | 13192 ft | 419 kts | 252° |
| 2026-05-06 16:57 | -23.41580 | -46.23336 | 12991 ft | 418 kts | 252° |
| 2026-05-06 16:57 | -23.42230 | -46.26416 | 12755 ft | 417 kts | 263° |
| 2026-05-06 16:57 | -23.42283 | -46.29563 | 12565 ft | 417 kts | 275° |
| 2026-05-06 16:57 | -23.41722 | -46.32646 | 12356 ft | 415 kts | 288° |
| 2026-05-06 16:58 | -23.40573 | -46.35516 | 12152 ft | 414 kts | 300° |
| 2026-05-06 16:58 | -23.39039 | -46.38111 | 11953 ft | 399 kts | 303° |
| 2026-05-06 16:58 | -23.37546 | -46.40575 | 11824 ft | 381 kts | 303° |
| 2026-05-06 16:58 | -23.36117 | -46.42937 | 11698 ft | 365 kts | 303° |
| 2026-05-06 16:59 | -23.34754 | -46.45196 | 11601 ft | 350 kts | 303° |
| 2026-05-06 16:59 | -23.33442 | -46.47368 | 11487 ft | 337 kts | 303° |
| 2026-05-06 16:59 | -23.32177 | -46.49463 | 11350 ft | 326 kts | 303° |
| 2026-05-06 16:59 | -23.30956 | -46.51482 | 11180 ft | 312 kts | 303° |
| 2026-05-06 17:00 | -23.29780 | -46.53428 | 10661 ft | 304 kts | 303° |
| 2026-05-06 17:00 | -23.28630 | -46.55330 | 10510 ft | 301 kts | 304° |
| 2026-05-06 17:00 | -23.27478 | -46.57230 | 10383 ft | 300 kts | 304° |
| 2026-05-06 17:00 | -23.26413 | -46.59178 | 10235 ft | 300 kts | 294° |
| 2026-05-06 17:01 | -23.25693 | -46.61314 | 9853 ft | 302 kts | 289° |
| 2026-05-06 17:01 | -23.25028 | -46.63467 | 9569 ft | 298 kts | 289° |
| 2026-05-06 17:01 | -23.24373 | -46.65598 | 9351 ft | 296 kts | 289° |
| 2026-05-06 17:01 | -23.23754 | -46.67733 | 9132 ft | 296 kts | 283° |
| 2026-05-06 17:02 | -23.23550 | -46.69949 | 8921 ft | 295 kts | 268° |
| 2026-05-06 17:02 | -23.23842 | -46.72155 | 8718 ft | 295 kts | 258° |
| 2026-05-06 17:02 | -23.24253 | -46.74335 | 8509 ft | 294 kts | 258° |
| 2026-05-06 17:02 | -23.24655 | -46.76511 | 8309 ft | 293 kts | 259° |
| 2026-05-06 17:03 | -23.25120 | -46.78656 | 8114 ft | 291 kts | 250° |
| 2026-05-06 17:03 | -23.26013 | -46.80623 | 7884 ft | 291 kts | 236° |
| 2026-05-06 17:03 | -23.27298 | -46.82308 | 7651 ft | 289 kts | 228° |
| 2026-05-06 17:03 | -23.28714 | -46.83853 | 7418 ft | 288 kts | 215° |
| 2026-05-06 17:04 | -23.30493 | -46.84734 | 7197 ft | 285 kts | 191° |
| 2026-05-06 17:04 | -23.32456 | -46.84743 | 6965 ft | 282 kts | 165° |
| 2026-05-06 17:04 | -23.34228 | -46.83865 | 6873 ft | 281 kts | 142° |
| 2026-05-06 17:04 | -23.35533 | -46.82305 | 6764 ft | 280 kts | 123° |
| 2026-05-06 17:05 | -23.36612 | -46.80530 | 6657 ft | 281 kts | 122° |
| 2026-05-06 17:05 | -23.37686 | -46.78757 | 6543 ft | 279 kts | 123° |
| 2026-05-06 17:05 | -23.38734 | -46.77032 | 6414 ft | 268 kts | 123° |
| 2026-05-06 17:05 | -23.39740 | -46.75375 | 6287 ft | 257 kts | 123° |
| 2026-05-06 17:06 | -23.40708 | -46.73781 | 6215 ft | 248 kts | 123° |
| 2026-05-06 17:06 | -23.41655 | -46.72222 | 6136 ft | 246 kts | 123° |
| 2026-05-06 17:06 | -23.42583 | -46.70693 | 6044 ft | 237 kts | 123° |
| 2026-05-06 17:06 | -23.43485 | -46.69223 | 5764 ft | 234 kts | 123° |
| 2026-05-06 17:07 | -23.44402 | -46.67756 | 5407 ft | 235 kts | 123° |
| 2026-05-06 17:07 | -23.45329 | -46.66282 | 5076 ft | 236 kts | 123° |
| 2026-05-06 17:07 | -23.46247 | -46.64819 | 4899 ft | 230 kts | 123° |
| 2026-05-06 17:07 | -23.47002 | -46.63358 | 4746 ft | 216 kts | 108° |
| 2026-05-06 17:08 | -23.47246 | -46.61795 | 4612 ft | 205 kts | 88° |
| 2026-05-06 17:08 | -23.47009 | -46.60318 | 4446 ft | 194 kts | 72° |
| 2026-05-06 17:08 | -23.46646 | -46.58971 | 4333 ft | 177 kts | 73° |
| 2026-05-06 17:08 | -23.46312 | -46.57731 | 4136 ft | 165 kts | 73° |
| 2026-05-06 17:09 | -23.45996 | -46.56559 | 3947 ft | 155 kts | 72° |
| 2026-05-06 17:09 | -23.45697 | -46.55449 | 3741 ft | 151 kts | 73° |
| 2026-05-06 17:09 | -23.45403 | -46.54357 | 3540 ft | 150 kts | 72° |
| 2026-05-06 17:09 | -23.45111 | -46.53271 | 3351 ft | 149 kts | 72° |
| 2026-05-06 17:10 | -23.44820 | -46.52192 | 3149 ft | 149 kts | 72° |
| 2026-05-06 17:10 | -23.44533 | -46.51129 | 2949 ft | 148 kts | 72° |
| 2026-05-06 17:10 | -23.44243 | -46.50055 | 2760 ft | 148 kts | 73° |
| 2026-05-06 17:10 | -23.43954 | -46.48984 | 2567 ft | 147 kts | 73° |
| 2026-05-06 17:11 | -23.43676 | -46.47963 | 2468 ft | 128 kts | 72° |
| 2026-05-06 17:11 | -23.43477 | -46.47211 | 2468 ft | 78 kts | 73° |
| 2026-05-06 17:11 | -23.43367 | -46.46801 | 2471 ft | 44 kts | 73° |
| 2026-05-06 17:11 | -23.43289 | -46.46508 | 2469 ft | 27 kts | 73° |
| 2026-05-06 17:12 | -23.43192 | -46.46337 | 2473 ft | 27 kts | 49° |
| 2026-05-06 17:12 | -23.43064 | -46.46203 | 2471 ft | 23 kts | 44° |
| 2026-05-06 17:12 | -23.42941 | -46.46144 | 2471 ft | 16 kts | 350° |
| 2026-05-06 17:12 | -23.42831 | -46.46175 | 2470 ft | 16 kts | 343° |
| 2026-05-06 17:13 | -23.42717 | -46.46212 | 2469 ft | 18 kts | 338° |
| 2026-05-06 17:13 | -23.42622 | -46.46269 | 2468 ft | 13 kts | 283° |
| 2026-05-06 17:13 | -23.42636 | -46.46361 | 2468 ft | 11 kts | 252° |
| 2026-05-06 17:13 | -23.42658 | -46.46436 | 2468 ft | 10 kts | 253° |
| 2026-05-06 17:14 | -23.42676 | -46.46506 | 2468 ft | 11 kts | 254° |
| 2026-05-06 17:14 | -23.42701 | -46.46594 | 2471 ft | 14 kts | 253° |
| 2026-05-06 17:14 | -23.42730 | -46.46704 | 2471 ft | 17 kts | 254° |
| 2026-05-06 17:14 | -23.42766 | -46.46836 | 2472 ft | 20 kts | 252° |
| 2026-05-06 17:15 | -23.42811 | -46.46990 | 2472 ft | 23 kts | 253° |
| 2026-05-06 17:15 | -23.42857 | -46.47166 | 2471 ft | 26 kts | 257° |
| 2026-05-06 17:15 | -23.42909 | -46.47361 | 2468 ft | 27 kts | 252° |
| 2026-05-06 17:15 | -23.42960 | -46.47551 | 2470 ft | 27 kts | 254° |
| 2026-05-06 17:16 | -23.43008 | -46.47735 | 2469 ft | 17 kts | 253° |
| 2026-05-06 17:16 | -23.42989 | -46.47813 | 2468 ft | 11 kts | 329° |
| 2026-05-06 17:16 | -23.42965 | -46.47877 | 2468 ft | 9 kts | 265° |
| 2026-05-06 17:16 | -23.42978 | -46.47934 | 2468 ft | 7 kts | 252° |
| 2026-05-06 17:17 | -23.42996 | -46.48003 | 2474 ft | 14 kts | 254° |
| 2026-05-06 17:17 | -23.43021 | -46.48100 | 2471 ft | 12 kts | 270° |
| 2026-05-06 17:17 | -23.42965 | -46.48139 | 2472 ft | 11 kts | 360° |
| 2026-05-06 17:17 | -23.42892 | -46.48126 | 2472 ft | 11 kts | 2° |
| 2026-05-06 17:18 | -23.42821 | -46.48129 | 2473 ft | 10 kts | 355° |
| 2026-05-06 17:18 | -23.42769 | -46.48133 | 2468 ft | 4 kts | 1° |
| 2026-05-06 17:18 | -23.42752 | -46.48110 | 2468 ft | 6 kts | 74° |
| 2026-05-06 17:18 | -23.42747 | -46.48070 | 2468 ft | 1 kts | 83° |
| 2026-05-06 17:19 | -23.42747 | -46.48068 | 2468 ft | 0 kts | 83° |